Time;durP1;ratioP1;P1;durP2;ratioP2;P2;SDS_P1;SDS_P2;PMS_P1;PMS_P2;Temp;Humidity;BMP_temperature;BMP_pressure;BME280_temperature;BME280_humidity;BME280_pressure;Samples;Min_cycle;Max_cycle;Signal;HPM_P1;HPM_P2
2023/12/02 00:00:51;;;;;;;48.60;26.40;;;;;;;2.99;100.00;99875.73;110052;1239;62243;-71
2023/12/02 00:03:31;;;;;;;49.10;27.40;;;;;;;3.02;100.00;99877.96;110061;1239;57762;-70
2023/12/02 00:06:00;;;;;;;52.30;27.30;;;;;;;2.98;100.00;99868.55;110106;1238;57870;-71
2023/12/02 00:08:29;;;;;;;55.10;28.50;;;;;;;3.06;100.00;99865.34;110132;1238;63625;-71
2023/12/02 00:10:58;;;;;;;49.90;26.70;;;;;;;3.05;100.00;99868.33;110148;1237;62024;-74
2023/12/02 00:13:27;;;;;;;55.50;28.70;;;;;;;2.98;100.00;99864.21;110073;1241;70197;-73
2023/12/02 00:15:56;;;;;;;55.20;27.30;;;;;;;3.03;100.00;99861.88;110073;1238;74033;-73
2023/12/02 00:18:25;;;;;;;47.20;26.20;;;;;;;3.09;100.00;99870.19;110102;1242;58267;-73
2023/12/02 00:20:54;;;;;;;46.60;26.70;;;;;;;3.17;100.00;99865.76;110181;1238;58382;-73
2023/12/02 00:23:23;;;;;;;48.60;26.10;;;;;;;3.19;100.00;99861.88;110187;1238;73312;-73
2023/12/02 00:25:52;;;;;;;46.50;25.20;;;;;;;3.23;100.00;99853.91;110112;1238;72392;-72
2023/12/02 00:28:20;;;;;;;48.60;25.10;;;;;;;3.26;100.00;99863.56;109881;1241;70098;-74
2023/12/02 00:30:49;;;;;;;50.20;28.10;;;;;;;3.28;100.00;99857.39;109910;1239;63761;-73
2023/12/02 00:33:18;;;;;;;51.10;26.70;;;;;;;3.27;100.00;99870.05;109907;1239;60419;-73
2023/12/02 00:35:47;;;;;;;50.30;27.20;;;;;;;3.28;100.00;99873.78;109943;1238;61490;-73
2023/12/02 00:38:15;;;;;;;46.90;24.40;;;;;;;3.29;100.00;99881.11;110044;1238;64769;-71
2023/12/02 00:40:44;;;;;;;46.60;24.90;;;;;;;3.30;100.00;99874.48;110002;1239;60735;-71
2023/12/02 00:43:13;;;;;;;48.10;25.90;;;;;;;3.27;100.00;99868.47;110012;1238;68528;-71
2023/12/02 00:45:42;;;;;;;45.80;25.20;;;;;;;3.20;100.00;99854.78;109979;1238;72806;-73
2023/12/02 00:48:10;;;;;;;49.70;27.00;;;;;;;3.09;100.00;99853.33;110067;1241;58334;-72
2023/12/02 00:50:39;;;;;;;49.40;26.60;;;;;;;3.00;100.00;99872.36;109966;1237;58328;-71
2023/12/02 00:53:08;;;;;;;49.00;26.10;;;;;;;3.06;100.00;99878.08;110104;1238;64313;-72
2023/12/02 00:55:37;;;;;;;49.10;26.70;;;;;;;3.13;100.00;99869.40;110059;1238;71457;-72
2023/12/02 00:58:05;;;;;;;44.90;24.30;;;;;;;3.12;100.00;99863.09;110069;1238;70088;-73
2023/12/02 01:00:34;;;;;;;44.00;24.70;;;;;;;3.14;100.00;99854.91;110089;1236;63136;-72
2023/12/02 01:03:03;;;;;;;48.50;27.10;;;;;;;3.20;100.00;99843.92;110005;1241;58373;-73
2023/12/02 01:05:32;;;;;;;46.60;25.00;;;;;;;3.03;100.00;99849.49;110005;1238;58326;-72
2023/12/02 01:08:01;;;;;;;47.70;25.40;;;;;;;3.16;100.00;99854.98;110118;1237;74143;-73
2023/12/02 01:10:29;;;;;;;39.10;21.70;;;;;;;3.12;100.00;99859.50;110036;1238;72478;-73
2023/12/02 01:12:58;;;;;;;40.70;22.10;;;;;;;3.14;100.00;99856.31;110075;1238;59631;-73
2023/12/02 01:15:27;;;;;;;48.00;26.30;;;;;;;3.09;100.00;99843.01;110066;1238;63291;-74
2023/12/02 01:17:56;;;;;;;48.00;25.70;;;;;;;3.02;100.00;99827.23;109978;1237;61034;-73
2023/12/02 01:20:24;;;;;;;52.10;28.30;;;;;;;2.93;100.00;99821.48;110061;1238;60006;-73
2023/12/02 01:22:53;;;;;;;46.90;26.30;;;;;;;2.94;100.00;99819.04;109954;1238;63193;-73
2023/12/02 01:25:22;;;;;;;49.30;25.60;;;;;;;2.99;100.00;99817.91;109988;1237;70146;-72
2023/12/02 01:27:50;;;;;;;42.90;22.60;;;;;;;3.05;100.00;99818.92;110067;1239;70760;-72
2023/12/02 01:30:20;;;;;;;50.30;25.10;;;;;;;3.06;100.00;99826.10;110037;1236;63418;-72
2023/12/02 01:32:48;;;;;;;48.50;24.60;;;;;;;3.01;100.00;99822.27;109955;1238;62004;-72
2023/12/02 01:35:17;;;;;;;51.80;26.10;;;;;;;3.04;100.00;99818.66;110064;1238;57762;-73
2023/12/02 01:37:46;;;;;;;55.70;27.50;;;;;;;3.00;100.00;99821.96;110097;1237;63605;-73
2023/12/02 01:40:15;;;;;;;54.70;26.70;;;;;;;3.00;100.00;99813.20;109969;1238;60727;-73
2023/12/02 01:42:44;;;;;;;55.40;29.10;;;;;;;2.98;100.00;99807.78;110091;1237;70278;-72
2023/12/02 01:45:12;;;;;;;46.20;23.60;;;;;;;3.01;100.00;99828.98;110009;1240;73989;-71
2023/12/02 01:47:42;;;;;;;50.20;26.00;;;;;;;3.06;100.00;99843.34;110079;1239;58259;-72
2023/12/02 01:50:12;;;;;;;51.40;26.50;;;;;;;3.02;100.00;99823.59;109877;1241;60130;-72
2023/12/02 01:52:41;;;;;;;48.90;26.30;;;;;;;2.98;100.00;99813.84;109977;1237;73808;-72
2023/12/02 01:55:10;;;;;;;51.50;25.60;;;;;;;3.10;100.00;99816.96;109747;1237;61142;-73
2023/12/02 01:57:39;;;;;;;46.40;26.00;;;;;;;3.16;100.00;99818.48;109991;1238;69522;-72
2023/12/02 02:00:09;;;;;;;52.70;25.90;;;;;;;3.05;100.00;99824.26;109850;1238;62626;-72
2023/12/02 02:02:41;;;;;;;50.00;25.80;;;;;;;3.10;100.00;99813.14;109977;1238;57741;-72
2023/12/02 02:05:10;;;;;;;49.80;25.60;;;;;;;2.99;100.00;99814.80;109963;1237;58228;-70
2023/12/02 02:07:39;;;;;;;49.40;25.40;;;;;;;3.12;100.00;99826.81;109946;1237;62764;-71
2023/12/02 02:10:08;;;;;;;53.80;25.90;;;;;;;3.17;100.00;99829.27;109998;1237;70658;-71
2023/12/02 02:12:37;;;;;;;56.10;24.60;;;;;;;3.24;100.00;99832.69;110010;1238;70040;-70
2023/12/02 02:15:06;;;;;;;56.70;26.40;;;;;;;3.26;100.00;99839.48;109858;1238;73928;-70
2023/12/02 02:17:35;;;;;;;57.70;27.10;;;;;;;3.22;100.00;99838.14;110078;1238;59445;-71
2023/12/02 02:20:05;;;;;;;56.30;26.90;;;;;;;3.24;100.00;99831.48;110123;1237;58184;-71
2023/12/02 02:22:35;;;;;;;57.00;26.90;;;;;;;3.26;100.00;99826.20;110119;1237;63822;-73
2023/12/02 02:25:04;;;;;;;55.70;26.10;;;;;;;3.30;100.00;99825.27;109962;1237;71194;-73
2023/12/02 02:27:33;;;;;;;49.50;23.80;;;;;;;3.22;100.00;99822.64;109873;1237;69047;-74
2023/12/02 02:30:02;;;;;;;61.60;26.80;;;;;;;3.35;100.00;99815.87;109869;1237;74314;-72
2023/12/02 02:32:31;;;;;;;55.70;27.10;;;;;;;3.24;100.00;99801.52;109731;1237;58617;-71
2023/12/02 02:35:00;;;;;;;68.40;28.30;;;;;;;3.17;100.00;99796.25;109992;1237;58331;-71
2023/12/02 02:37:29;;;;;;;66.40;28.30;;;;;;;3.05;100.00;99796.38;109960;1237;74294;-73
2023/12/02 02:39:57;;;;;;;61.40;26.20;;;;;;;3.10;100.00;99805.77;109938;1237;71550;-73
2023/12/02 02:42:26;;;;;;;64.30;27.20;;;;;;;3.23;100.00;99811.92;109948;1237;59504;-73
2023/12/02 02:44:55;;;;;;;62.20;25.80;;;;;;;3.30;100.00;99825.13;109900;1237;73642;-73
2023/12/02 02:47:24;;;;;;;61.70;26.90;;;;;;;3.25;100.00;99826.10;109826;1240;58344;-71
2023/12/02 02:49:53;;;;;;;63.60;26.50;;;;;;;3.18;100.00;99821.67;109977;1239;58301;-71
2023/12/02 02:52:22;;;;;;;55.60;25.70;;;;;;;3.23;100.00;99822.27;109914;1238;73688;-71
2023/12/02 02:54:51;;;;;;;56.60;25.80;;;;;;;3.30;100.00;99812.39;109877;1237;71964;-71
2023/12/02 02:57:22;;;;;;;61.00;26.30;;;;;;;3.33;100.00;99809.13;109843;1237;60104;-72
2023/12/02 02:59:51;;;;;;;57.80;24.50;;;;;;;3.34;100.00;99810.59;109927;1237;63054;-72
2023/12/02 03:02:20;;;;;;;51.70;23.30;;;;;;;3.33;100.00;99806.52;109896;1239;60710;-72
2023/12/02 03:04:49;;;;;;;60.50;24.80;;;;;;;3.31;100.00;99800.78;109945;1237;61264;-71
2023/12/02 03:07:17;;;;;;;61.90;26.60;;;;;;;3.28;100.00;99808.73;109857;1237;64364;-71
2023/12/02 03:09:46;;;;;;;63.60;25.00;;;;;;;3.30;100.00;99813.95;110002;1237;60800;-72
2023/12/02 03:12:15;;;;;;;62.50;25.50;;;;;;;3.27;100.00;99822.04;109965;1238;69335;-72
2023/12/02 03:14:44;;;;;;;56.30;24.30;;;;;;;3.32;100.00;99813.64;109921;1238;74255;-70
2023/12/02 03:17:13;;;;;;;62.30;26.50;;;;;;;3.32;100.00;99810.73;109860;1239;57862;-72
2023/12/02 03:19:42;;;;;;;61.00;26.90;;;;;;;3.29;100.00;99817.10;109934;1237;59943;-72
2023/12/02 03:22:11;;;;;;;61.80;25.20;;;;;;;3.33;100.00;99806.02;109949;1237;73359;-72
2023/12/02 03:24:39;;;;;;;62.20;25.00;;;;;;;3.34;100.00;99791.88;109757;1237;72648;-71
2023/12/02 03:27:08;;;;;;;61.60;25.70;;;;;;;3.27;100.00;99791.23;109941;1237;59587;-72
2023/12/02 03:29:37;;;;;;;60.20;25.60;;;;;;;3.23;100.00;99791.77;109974;1237;62298;-72
2023/12/02 03:32:06;;;;;;;52.50;23.60;;;;;;;3.23;100.00;99794.73;110041;1238;61981;-71
2023/12/02 03:34:35;;;;;;;54.00;24.60;;;;;;;3.32;100.00;99804.02;110106;1238;61557;-71
2023/12/02 03:37:04;;;;;;;58.30;26.30;;;;;;;3.26;100.00;99789.04;110087;1237;73799;-72
2023/12/02 03:39:32;;;;;;;58.60;26.70;;;;;;;3.18;100.00;99780.56;110022;1237;72341;-72
2023/12/02 03:42:02;;;;;;;60.40;26.20;;;;;;;3.13;100.00;99766.89;110134;1236;61639;-72
2023/12/02 03:44:32;;;;;;;54.50;25.80;;;;;;;3.03;100.00;99753.21;110155;1237;62254;-77
2023/12/02 03:47:03;;;;;;;46.00;21.10;;;;;;;2.92;100.00;99763.57;110051;1238;61896;-75
2023/12/02 03:49:31;;;;;;;55.90;24.10;;;;;;;2.84;100.00;99762.66;110139;1238;61545;-77
2023/12/02 03:52:00;;;;;;;54.90;24.90;;;;;;;2.86;100.00;99767.68;110057;1237;65234;-75
2023/12/02 03:54:29;;;;;;;52.00;21.60;;;;;;;3.00;100.00;99780.39;110149;1237;61652;-76
2023/12/02 03:56:58;;;;;;;53.90;25.00;;;;;;;3.05;100.00;99775.41;110070;1239;59808;-75
2023/12/02 03:59:27;;;;;;;51.90;22.10;;;;;;;3.06;100.00;99765.72;110078;1237;73051;-75
2023/12/02 04:01:56;;;;;;;51.70;22.90;;;;;;;3.09;100.00;99770.90;109987;1239;61335;-75
2023/12/02 04:04:25;;;;;;;46.30;21.60;;;;;;;3.05;100.00;99781.80;110017;1237;61516;-75
2023/12/02 04:06:53;;;;;;;44.80;22.70;;;;;;;3.08;100.00;99797.23;110087;1237;73868;-73
2023/12/02 04:09:22;;;;;;;48.80;22.20;;;;;;;3.03;100.00;99802.17;110096;1237;72530;-74
2023/12/02 04:11:51;;;;;;;43.90;20.70;;;;;;;2.94;100.00;99800.48;110137;1237;59560;-74
2023/12/02 04:14:21;;;;;;;47.80;21.20;;;;;;;2.99;100.00;99795.73;110119;1239;63065;-72
2023/12/02 04:16:50;;;;;;;44.00;21.00;;;;;;;3.02;100.00;99788.83;110118;1238;61215;-74
2023/12/02 04:19:18;;;;;;;47.10;22.50;;;;;;;3.03;100.00;99778.63;110126;1237;61344;-72
2023/12/02 04:21:47;;;;;;;49.10;22.70;;;;;;;2.98;100.00;99775.30;110145;1237;64997;-72
2023/12/02 04:24:16;;;;;;;46.70;22.40;;;;;;;2.88;100.00;99774.98;110066;1238;62291;-72
2023/12/02 04:26:46;;;;;;;46.00;20.70;;;;;;;3.04;100.00;99785.64;110147;1238;59203;-72
2023/12/02 04:29:15;;;;;;;43.80;20.50;;;;;;;3.14;100.00;99797.63;109967;1237;63066;-73
2023/12/02 04:31:44;;;;;;;48.70;22.10;;;;;;;3.20;100.00;99795.41;109866;1238;57839;-72
2023/12/02 04:34:14;;;;;;;41.20;18.80;;;;;;;3.12;100.00;99789.15;109960;1237;60298;-73
2023/12/02 04:36:50;;;;;;;47.60;22.30;;;;;;;3.17;100.00;99789.55;109863;1238;64001;-73
2023/12/02 04:39:29;;;;;;;43.40;20.30;;;;;;;3.14;100.00;99792.48;109890;1236;61685;-73
2023/12/02 04:41:58;;;;;;;54.60;25.10;;;;;;;3.06;100.00;99797.02;109985;1239;59018;-73
2023/12/02 04:44:27;;;;;;;52.00;22.40;;;;;;;2.99;100.00;99791.76;109873;1238;72994;-70
2023/12/02 04:46:55;;;;;;;52.60;23.80;;;;;;;3.10;100.00;99778.57;109904;1239;61372;-71
2023/12/02 04:49:24;;;;;;;54.50;22.50;;;;;;;3.03;100.00;99784.64;109959;1238;57836;-72
2023/12/02 04:51:53;;;;;;;46.50;21.60;;;;;;;3.00;100.00;99788.95;109945;1238;62809;-72
2023/12/02 04:54:22;;;;;;;50.90;23.70;;;;;;;3.11;100.00;99788.67;110084;1237;72210;-72
2023/12/02 04:56:50;;;;;;;53.80;22.40;;;;;;;3.04;100.00;99789.41;110073;1236;70737;-71
2023/12/02 04:59:19;;;;;;;47.80;21.90;;;;;;;3.16;100.00;99782.70;109987;1237;63497;-74
2023/12/02 05:01:48;;;;;;;53.50;23.50;;;;;;;3.16;100.00;99777.05;109744;1241;58389;-74
2023/12/02 05:04:17;;;;;;;51.20;23.20;;;;;;;3.06;100.00;99773.45;109967;1239;58345;-73
2023/12/02 05:06:46;;;;;;;50.50;24.10;;;;;;;3.02;100.00;99772.35;109857;1238;74161;-74
2023/12/02 05:09:16;;;;;;;51.50;24.60;;;;;;;3.08;100.00;99763.05;109927;1238;71524;-74
2023/12/02 05:11:45;;;;;;;53.20;24.90;;;;;;;2.98;100.00;99756.91;109954;1237;70331;-73
2023/12/02 05:14:13;;;;;;;58.40;26.50;;;;;;;2.88;100.00;99768.25;109938;1236;63988;-73
2023/12/02 05:16:42;;;;;;;56.30;25.00;;;;;;;2.96;100.00;99775.80;109924;1239;58314;-73
2023/12/02 05:19:11;;;;;;;56.80;24.30;;;;;;;3.00;100.00;99779.35;109778;1240;57720;-73
2023/12/02 05:21:40;;;;;;;54.60;23.20;;;;;;;3.03;100.00;99784.48;109957;1239;63736;-72
2023/12/02 05:24:09;;;;;;;52.70;25.30;;;;;;;3.09;100.00;99778.63;109984;1239;61409;-72
2023/12/02 05:26:38;;;;;;;50.90;25.20;;;;;;;3.03;100.00;99781.58;110098;1237;69634;-72
2023/12/02 05:29:07;;;;;;;52.70;25.10;;;;;;;3.06;100.00;99794.98;110079;1237;73610;-72
2023/12/02 05:31:38;;;;;;;55.90;25.20;;;;;;;3.11;100.00;99793.29;110055;1237;61642;-73
2023/12/02 05:34:07;;;;;;;53.10;24.20;;;;;;;3.08;100.00;99792.44;110081;1237;61674;-73
2023/12/02 05:36:36;;;;;;;56.10;26.30;;;;;;;3.02;100.00;99785.23;110105;1237;74538;-73
2023/12/02 05:39:05;;;;;;;52.10;25.60;;;;;;;2.96;100.00;99776.30;110100;1237;72465;-72
2023/12/02 05:41:34;;;;;;;60.70;28.50;;;;;;;2.90;100.00;99756.48;110004;1238;70565;-72
2023/12/02 05:44:03;;;;;;;60.60;27.70;;;;;;;2.72;100.00;99748.89;110058;1237;74368;-73
2023/12/02 05:46:32;;;;;;;59.70;29.30;;;;;;;2.78;100.00;99758.85;109906;1238;58383;-74
2023/12/02 05:49:01;;;;;;;58.50;27.30;;;;;;;2.77;100.00;99753.77;109818;1238;57708;-73
2023/12/02 05:51:30;;;;;;;56.60;27.20;;;;;;;2.82;100.00;99750.19;109906;1238;64278;-74
2023/12/02 05:54:00;;;;;;;59.90;25.90;;;;;;;2.87;100.00;99757.00;109893;1236;72297;-74
2023/12/02 05:56:29;;;;;;;63.50;29.30;;;;;;;2.89;100.00;99758.79;109895;1239;60230;-73
2023/12/02 05:58:58;;;;;;;61.30;26.90;;;;;;;2.98;100.00;99760.66;109902;1238;73791;-71
2023/12/02 06:01:26;;;;;;;63.10;29.70;;;;;;;2.99;100.00;99759.42;109903;1239;61457;-72
2023/12/02 06:03:58;;;;;;;66.90;29.20;;;;;;;2.86;100.00;99736.41;109947;1237;60844;-73
2023/12/02 06:06:27;;;;;;;63.30;29.30;;;;;;;2.82;100.00;99728.36;109921;1237;74569;-73
2023/12/02 06:08:56;;;;;;;58.30;28.90;;;;;;;2.78;100.00;99732.91;109920;1236;71908;-73
2023/12/02 06:11:25;;;;;;;64.00;30.30;;;;;;;2.86;100.00;99755.29;109817;1238;70197;-74
2023/12/02 06:13:53;;;;;;;61.60;28.70;;;;;;;2.97;100.00;99786.69;109942;1237;63188;-73
2023/12/02 06:16:22;;;;;;;61.60;29.10;;;;;;;3.04;100.00;99787.54;109895;1239;57785;-71
2023/12/02 06:18:51;;;;;;;57.80;28.00;;;;;;;3.11;100.00;99774.08;109982;1238;59149;-71
2023/12/02 06:21:20;;;;;;;62.20;28.80;;;;;;;3.11;100.00;99766.29;109996;1238;64130;-71
2023/12/02 06:23:51;;;;;;;59.10;27.50;;;;;;;3.21;100.00;99775.41;110006;1239;61485;-73
2023/12/02 06:26:24;;;;;;;60.50;29.00;;;;;;;3.28;100.00;99776.89;110095;1237;70368;-71
2023/12/02 06:28:55;;;;;;;64.10;29.20;;;;;;;3.26;100.00;99775.45;110088;1239;63833;-72
2023/12/02 06:31:25;;;;;;;58.40;28.60;;;;;;;3.22;100.00;99777.04;110003;1239;58364;-72
2023/12/02 06:33:53;;;;;;;60.30;29.10;;;;;;;3.23;100.00;99774.92;110125;1237;60979;-72
2023/12/02 06:36:23;;;;;;;63.30;29.50;;;;;;;3.29;100.00;99765.46;110112;1237;74527;-71
2023/12/02 06:38:52;;;;;;;60.20;28.00;;;;;;;3.25;100.00;99761.93;110132;1237;72700;-71
2023/12/02 06:41:22;;;;;;;60.10;28.20;;;;;;;3.29;100.00;99757.54;110164;1237;70743;-71
2023/12/02 06:43:51;;;;;;;60.60;28.10;;;;;;;3.35;100.00;99757.87;109732;1239;547438;-71
2023/12/02 06:46:22;;;;;;;57.20;27.40;;;;;;;3.34;100.00;99758.27;109944;1241;58301;-71
2023/12/02 06:48:51;;;;;;;56.90;26.50;;;;;;;3.30;100.00;99760.23;110023;1236;60155;-71
2023/12/02 06:51:21;;;;;;;53.40;24.00;;;;;;;3.33;100.00;99758.34;110080;1238;64460;-71
2023/12/02 06:53:50;;;;;;;55.90;25.60;;;;;;;3.45;100.00;99755.26;110073;1238;71257;-71
2023/12/02 06:56:22;;;;;;;57.70;26.40;;;;;;;3.38;100.00;99762.34;110153;1236;70062;-71
2023/12/02 06:58:52;;;;;;;58.80;26.70;;;;;;;3.36;100.00;99763.83;110012;1238;63502;-70
2023/12/02 07:01:24;;;;;;;58.30;29.20;;;;;;;3.38;100.00;99758.56;110021;1241;62174;-72
2023/12/02 07:03:54;;;;;;;51.10;25.90;;;;;;;3.38;100.00;99762.83;110044;1238;61537;-71
2023/12/02 07:06:24;;;;;;;55.90;26.50;;;;;;;3.37;100.00;99766.52;110024;1239;63966;-71
2023/12/02 07:08:54;;;;;;;56.60;27.20;;;;;;;3.46;100.00;99767.77;109965;1239;62163;-73
2023/12/02 07:11:23;;;;;;;57.70;27.10;;;;;;;3.45;100.00;99753.34;109910;1238;60610;-75
2023/12/02 07:13:52;;;;;;;58.00;27.70;;;;;;;3.43;100.00;99742.77;110111;1238;63667;-74
2023/12/02 07:16:21;;;;;;;59.80;28.40;;;;;;;3.52;100.00;99748.66;110093;1238;57747;-72
2023/12/02 07:18:50;;;;;;;68.20;30.70;;;;;;;3.50;100.00;99754.96;110121;1237;61278;-73
2023/12/02 07:21:18;;;;;;;58.30;27.80;;;;;;;3.43;100.00;99754.32;110041;1241;73784;-72
2023/12/02 07:23:47;;;;;;;67.60;28.90;;;;;;;3.47;100.00;99754.80;110149;1239;62466;-72
2023/12/02 07:26:16;;;;;;;63.40;28.20;;;;;;;3.45;100.00;99750.57;110175;1236;59303;-73
2023/12/02 07:28:45;;;;;;;64.70;30.10;;;;;;;3.50;100.00;99742.92;110021;1238;62433;-73
2023/12/02 07:31:15;;;;;;;65.20;28.00;;;;;;;3.48;100.00;99740.77;109882;1241;61890;-73
2023/12/02 07:33:44;;;;;;;64.40;29.10;;;;;;;3.50;100.00;99743.77;110105;1238;58191;-76
2023/12/02 07:36:13;;;;;;;59.80;28.60;;;;;;;3.53;100.00;99748.55;110154;1238;63766;-73
2023/12/02 07:38:42;;;;;;;61.30;27.60;;;;;;;3.59;100.00;99741.00;110103;1237;72012;-73
2023/12/02 07:41:10;;;;;;;65.00;27.90;;;;;;;3.51;100.00;99735.64;110154;1237;60502;-72
2023/12/02 07:43:39;;;;;;;65.60;30.00;;;;;;;3.47;100.00;99735.46;110120;1238;63169;-72
2023/12/02 07:46:09;;;;;;;62.10;29.10;;;;;;;3.38;100.00;99743.94;110110;1238;57805;-72
2023/12/02 07:48:37;;;;;;;64.50;29.10;;;;;;;3.39;100.00;99762.14;109993;1238;61064;-73
2023/12/02 07:51:07;;;;;;;63.00;28.10;;;;;;;3.52;100.00;99755.84;109952;1237;64182;-71
2023/12/02 07:53:36;;;;;;;59.40;28.90;;;;;;;3.62;100.00;99745.64;110053;1237;71971;-73
2023/12/02 07:56:06;;;;;;;65.40;30.10;;;;;;;3.63;100.00;99746.79;110036;1237;59982;-73
2023/12/02 07:58:36;;;;;;;64.20;28.50;;;;;;;3.70;100.00;99751.89;110113;1238;71931;-72
2023/12/02 08:01:05;;;;;;;62.40;30.40;;;;;;;3.69;100.00;99743.86;110139;1239;62496;-73
2023/12/02 08:03:34;;;;;;;62.70;29.60;;;;;;;3.81;100.00;99735.91;110142;1237;58241;-72
2023/12/02 08:06:03;;;;;;;60.30;30.20;;;;;;;3.98;100.00;99736.23;110141;1237;74339;-72
2023/12/02 08:08:32;;;;;;;56.90;28.30;;;;;;;3.91;100.00;99746.86;110118;1237;72015;-73
2023/12/02 08:11:00;;;;;;;58.00;28.00;;;;;;;3.94;100.00;99752.52;110105;1238;70737;-72
2023/12/02 08:13:29;;;;;;;59.90;28.50;;;;;;;4.03;100.00;99743.40;110006;1237;63478;-74
2023/12/02 08:16:02;;;;;;;59.10;28.20;;;;;;;4.03;100.00;99737.35;110101;1239;61792;-74
2023/12/02 08:18:31;;;;;;;60.90;29.40;;;;;;;4.08;100.00;99743.58;110039;1238;58225;-75
2023/12/02 08:21:00;;;;;;;55.20;26.50;;;;;;;4.10;100.00;99740.68;110010;1236;63758;-76
2023/12/02 08:23:29;;;;;;;59.90;29.00;;;;;;;4.13;100.00;99740.14;110085;1238;71951;-76
2023/12/02 08:25:57;;;;;;;62.00;28.90;;;;;;;4.17;100.00;99734.93;109921;1237;70483;-75
2023/12/02 08:28:26;;;;;;;59.30;27.50;;;;;;;4.02;100.00;99729.82;110131;1237;63692;-75
2023/12/02 08:30:55;;;;;;;68.80;31.80;;;;;;;3.79;100.00;99734.31;109964;1237;58326;-75
2023/12/02 08:33:24;;;;;;;61.10;27.50;;;;;;;3.79;100.00;99731.89;109988;1239;61255;-73
2023/12/02 08:35:52;;;;;;;65.30;30.20;;;;;;;3.82;100.00;99729.80;110094;1237;75448;-82
2023/12/02 08:38:21;;;;;;;62.50;31.70;;;;;;;3.73;100.00;99720.36;110158;1237;61929;-78
2023/12/02 08:40:50;;;;;;;69.90;31.50;;;;;;;3.81;100.00;99707.30;110163;1237;69694;-72
2023/12/02 08:43:19;;;;;;;66.50;31.60;;;;;;;3.96;100.00;99703.47;110051;1238;63577;-69
2023/12/02 08:45:48;;;;;;;67.90;31.10;;;;;;;4.11;100.00;99707.91;110109;1239;58354;-70
2023/12/02 08:48:17;;;;;;;68.00;32.20;;;;;;;4.25;100.00;99715.64;110024;1240;60390;-69
2023/12/02 08:50:46;;;;;;;66.70;31.40;;;;;;;4.25;100.00;99714.25;110050;1238;74770;-69
2023/12/02 08:53:15;;;;;;;68.90;31.20;;;;;;;4.23;100.00;99712.83;109911;1237;72515;-68
2023/12/02 08:55:44;;;;;;;64.80;30.90;;;;;;;4.19;100.00;99709.48;110066;1238;70760;-68
2023/12/02 08:58:13;;;;;;;60.40;30.20;;;;;;;4.25;100.00;99699.58;110079;1236;74173;-70
2023/12/02 09:00:41;;;;;;;65.20;32.40;;;;;;;4.37;100.00;99688.34;110065;1237;60969;-71
2023/12/02 09:03:12;;;;;;;74.60;32.40;;;;;;;4.37;100.00;99685.62;110015;1237;58316;-70
2023/12/02 09:05:41;;;;;;;66.70;31.10;;;;;;;4.43;100.00;99683.84;109971;1236;63778;-69
2023/12/02 09:08:11;;;;;;;68.30;30.40;;;;;;;4.49;100.00;99674.14;109913;1237;60838;-70
2023/12/02 09:10:40;;;;;;;63.00;29.50;;;;;;;4.59;100.00;99674.90;109936;1237;59972;-70
2023/12/02 09:13:39;;;;;;;67.30;33.40;;;;;;;4.62;100.00;99681.93;109946;1237;63091;-71
2023/12/02 09:16:20;;;;;;;64.40;31.40;;;;;;;4.51;100.00;99694.17;109842;1237;61388;-70
2023/12/02 09:18:52;;;;;;;69.50;32.50;;;;;;;4.49;100.00;99691.20;109774;1237;61119;-70
2023/12/02 09:21:21;;;;;;;66.20;32.00;;;;;;;4.37;100.00;99697.67;109900;1238;75228;-70
2023/12/02 09:23:51;;;;;;;72.30;33.30;;;;;;;4.53;100.00;99698.55;110028;1237;72239;-70
2023/12/02 09:26:35;;;;;;;66.00;31.70;;;;;;;4.66;100.00;99688.05;109847;1235;59227;-69
2023/12/02 09:29:03;;;;;;;64.30;31.20;;;;;;;4.76;100.00;99673.27;109795;1236;64072;-70
2023/12/02 09:31:33;;;;;;;68.50;32.40;;;;;;;4.74;100.00;99661.48;109808;1237;63371;-70
2023/12/02 09:34:03;;;;;;;68.70;32.10;;;;;;;4.62;100.00;99663.48;109727;1237;60823;-70
2023/12/02 09:36:41;;;;;;;68.40;32.40;;;;;;;4.66;100.00;99654.63;109689;1237;75070;-70
2023/12/02 09:39:10;;;;;;;68.00;31.40;;;;;;;4.77;100.00;99649.77;109657;1241;72704;-70
2023/12/02 09:41:51;;;;;;;60.50;31.10;;;;;;;4.83;100.00;99654.69;109932;1237;60680;-76
2023/12/02 09:44:39;;;;;;;61.40;31.70;;;;;;;4.88;100.00;99649.01;109858;1237;63018;-76
2023/12/02 09:47:20;;;;;;;63.30;31.50;;;;;;;5.02;100.00;99655.87;109945;1240;62139;-77
2023/12/02 09:50:12;;;;;;;61.10;30.60;;;;;;;4.96;100.00;99664.72;109771;1239;61901;-76
2023/12/02 09:53:02;;;;;;;58.80;31.20;;;;;;;4.73;100.00;99651.38;109835;1236;74759;-70
2023/12/02 09:55:43;;;;;;;69.40;31.30;;;;;;;4.89;100.00;99632.58;109998;1237;61571;-71
2023/12/02 09:58:43;;;;;;;57.90;29.30;;;;;;;5.09;100.00;99633.70;109798;1237;60158;-70
2023/12/02 10:01:22;;;;;;;65.60;33.20;;;;;;;5.08;100.00;99620.46;109831;1237;73918;-70
2023/12/02 10:04:35;;;;;;;57.60;30.40;;;;;;;5.05;100.00;99609.26;110024;1238;61675;-71
2023/12/02 10:07:19;;;;;;;62.00;30.50;;;;;;;5.10;100.00;99617.90;110026;1237;60551;-69
2023/12/02 10:10:03;;;;;;;60.60;31.40;;;;;;;5.19;100.00;99619.70;109972;1237;74128;-70
2023/12/02 10:13:25;;;;;;;60.30;29.80;;;;;;;5.21;100.00;99613.71;109906;1237;62260;-69
2023/12/02 10:16:00;;;;;;;58.50;30.90;;;;;;;5.30;100.00;99613.11;110029;1238;59790;-68
2023/12/02 10:18:37;;;;;;;65.70;32.40;;;;;;;5.23;100.00;99611.55;110038;1237;62310;-69
2023/12/02 10:21:11;;;;;;;72.90;31.60;;;;;;;5.26;100.00;99605.27;109935;1237;61123;-70
2023/12/02 10:23:57;;;;;;;61.70;31.90;;;;;;;5.42;100.00;99599.66;110038;1236;58251;-70
2023/12/02 10:26:49;;;;;;;64.40;31.20;;;;;;;5.65;100.00;99583.40;109992;1237;74286;-71
2023/12/02 10:29:35;;;;;;;67.80;31.20;;;;;;;5.64;100.00;99579.84;109935;1237;72515;-70
2023/12/02 10:32:32;;;;;;;66.30;32.10;;;;;;;5.63;100.00;99580.11;109825;1237;60460;-69
2023/12/02 10:35:20;;;;;;;61.10;29.60;;;;;;;5.56;100.00;99581.08;109930;1237;72728;-70
2023/12/02 10:38:45;;;;;;;65.80;32.10;;;;;;;5.70;100.00;99581.47;109979;1237;57800;-70
2023/12/02 10:41:22;;;;;;;61.60;31.90;;;;;;;5.77;100.00;99593.24;109855;1237;60171;-69
2023/12/02 10:43:56;;;;;;;62.00;32.70;;;;;;;5.94;100.00;99593.83;110032;1237;75511;-70
2023/12/02 10:46:26;;;;;;;62.80;31.30;;;;;;;5.91;100.00;99585.08;110061;1237;61781;-70
2023/12/02 10:49:09;;;;;;;64.80;35.50;;;;;;;5.88;100.00;99585.77;109940;1237;69685;-70
2023/12/02 10:51:43;;;;;;;60.30;33.20;;;;;;;5.83;100.00;99591.84;110003;1237;64781;-70
2023/12/02 10:54:15;;;;;;;;;;;;;;;5.94;100.00;99578.13;109810;1237;61274;-70
2023/12/02 10:56:49;;;;;;;62.10;33.60;;;;;;;6.02;100.00;99564.54;109846;1237;61448;-70
2023/12/02 10:59:21;;;;;;;61.20;33.00;;;;;;;6.08;100.00;99558.74;109612;1237;64399;-70
2023/12/02 11:02:23;;;;;;;58.90;32.40;;;;;;;6.19;100.00;99548.00;109634;1237;60838;-70
2023/12/02 11:05:17;;;;;;;66.00;33.60;;;;;;;5.94;100.00;99526.27;109798;1237;71191;-71
2023/12/02 11:08:03;;;;;;;58.90;32.70;;;;;;;6.08;100.00;99519.17;109825;1241;63084;-71
2023/12/02 11:10:50;;;;;;;59.70;33.70;;;;;;;6.01;100.00;99518.13;109824;1241;57767;-70
2023/12/02 11:13:26;;;;;;;54.90;29.80;;;;;;;6.01;100.00;99511.02;109953;1238;60223;-70
2023/12/02 11:16:20;;;;;;;59.30;33.60;;;;;;;6.09;100.00;99503.05;109937;1237;73170;-71
2023/12/02 11:19:39;;;;;;;55.40;31.90;;;;;;;5.98;100.00;99498.31;109855;1237;72772;-70
2023/12/02 11:22:42;;;;;;;60.60;32.80;;;;;;;5.83;100.00;99505.70;109930;1237;68658;-69
2023/12/02 11:25:40;;;;;;;56.00;31.90;;;;;;;5.92;100.00;99517.59;109818;1238;63503;-69
2023/12/02 11:28:36;;;;;;;60.40;33.20;;;;;;;6.10;100.00;99532.01;109917;1237;61207;-68
2023/12/02 11:31:20;;;;;;;55.50;31.60;;;;;;;6.03;100.00;99541.30;109954;1237;60156;-69